createdAt,value
2019-03-27T00:00:10.444Z,14.90
2019-03-27T00:02:39.491Z,17.15
2019-03-27T00:05:08.362Z,16.50
2019-03-27T00:07:37.215Z,19.48
2019-03-27T00:10:07.684Z,15.48
2019-03-27T00:12:36.903Z,14.30
2019-03-27T00:15:13.191Z,19.55
2019-03-27T00:17:38.494Z,14.00
2019-03-27T00:20:08.855Z,19.62
2019-03-27T00:22:37.789Z,11.85
2019-03-27T00:25:08.328Z,18.25
2019-03-27T00:27:37.334Z,16.75
2019-03-27T00:30:06.848Z,15.40
2019-03-27T00:32:35.739Z,17.60
2019-03-27T00:35:04.872Z,18.90
2019-03-27T00:37:33.656Z,16.35
2019-03-27T00:40:02.556Z,17.27
2019-03-27T00:42:31.341Z,17.90
2019-03-27T00:45:00.389Z,21.97
2019-03-27T00:47:29.175Z,17.10
2019-03-27T00:49:57.909Z,16.52
2019-03-27T00:52:26.671Z,17.20
2019-03-27T00:54:55.942Z,21.65
2019-03-27T00:57:24.747Z,14.90
2019-03-27T00:59:53.635Z,17.80
2019-03-27T01:02:22.369Z,19.70
2019-03-27T01:04:51.113Z,17.90
2019-03-27T01:07:19.867Z,23.45
2019-03-27T01:09:48.917Z,15.10
2019-03-27T01:12:17.885Z,17.65
2019-03-27T01:14:46.948Z,23.20
2019-03-27T01:17:15.771Z,18.42
2019-03-27T01:19:44.752Z,22.27
2019-03-27T01:22:13.572Z,22.02
2019-03-27T01:24:42.586Z,19.07
2019-03-27T01:27:11.291Z,20.57
2019-03-27T01:29:40.211Z,19.12
2019-03-27T01:32:09.306Z,22.58
2019-03-27T01:34:38.206Z,24.67
2019-03-27T01:37:07.428Z,20.80
2019-03-27T01:39:36.132Z,24.75
2019-03-27T01:42:05.620Z,19.40
2019-03-27T01:44:34.399Z,22.22
2019-03-27T01:47:03.182Z,23.32
2019-03-27T01:49:32.214Z,22.60
2019-03-27T01:52:00.897Z,24.12
2019-03-27T01:54:29.609Z,18.92
2019-03-27T01:56:58.873Z,19.62
2019-03-27T01:59:27.683Z,22.87
2019-03-27T02:01:56.547Z,19.85
2019-03-27T02:04:25.486Z,18.27
2019-03-27T02:06:54.155Z,26.75
2019-03-27T02:09:22.853Z,19.87
2019-03-27T02:11:51.665Z,21.80
2019-03-27T02:14:20.477Z,21.95
2019-03-27T02:16:49.233Z,21.93
2019-03-27T02:19:18.453Z,17.40
2019-03-27T02:21:47.838Z,22.42
2019-03-27T02:24:16.682Z,18.20
2019-03-27T02:26:45.464Z,22.35
2019-03-27T02:29:14.307Z,17.87
2019-03-27T02:31:43.406Z,21.20
2019-03-27T02:34:12.283Z,18.87
2019-03-27T02:36:41.138Z,20.12
2019-03-27T02:39:09.986Z,23.85
2019-03-27T02:41:38.900Z,26.55
2019-03-27T02:44:07.600Z,15.85
2019-03-27T02:46:36.331Z,15.72
2019-03-27T02:49:05.142Z,20.85
2019-03-27T02:51:34.038Z,21.30
2019-03-27T02:54:02.788Z,19.10
2019-03-27T02:56:31.643Z,21.40
2019-03-27T02:59:00.691Z,18.23
2019-03-27T03:01:29.483Z,20.12
2019-03-27T03:03:58.265Z,19.87
2019-03-27T03:06:27.445Z,21.45
2019-03-27T03:08:56.204Z,20.65
2019-03-27T03:11:25.406Z,20.68
2019-03-27T03:13:54.397Z,19.12
2019-03-27T03:16:40.948Z,20.00
2019-03-27T03:18:54.372Z,19.15
2019-03-27T03:21:23.148Z,25.52
2019-03-27T03:23:52.454Z,26.62
2019-03-27T03:26:21.543Z,27.87
2019-03-27T03:28:50.465Z,27.80
2019-03-27T03:31:19.459Z,26.55
2019-03-27T03:33:48.769Z,24.90
2019-03-27T03:36:17.739Z,28.27
2019-03-27T03:38:46.506Z,28.42
2019-03-27T03:41:15.402Z,27.82
2019-03-27T03:43:44.161Z,24.15
2019-03-27T03:46:12.878Z,35.00
2019-03-27T03:48:41.885Z,24.05
2019-03-27T03:51:10.987Z,29.82
2019-03-27T03:53:39.857Z,28.12
2019-03-27T03:56:09.913Z,27.60
2019-03-27T03:58:40.698Z,25.02
2019-03-27T04:01:11.287Z,30.32
2019-03-27T04:03:42.353Z,24.15
2019-03-27T04:06:11.316Z,20.40
2019-03-27T04:08:40.391Z,25.45
2019-03-27T04:11:09.169Z,29.02
2019-03-27T04:13:38.544Z,28.32
2019-03-27T04:16:07.515Z,26.90
2019-03-27T04:18:36.425Z,28.60
2019-03-27T04:21:05.381Z,27.87
2019-03-27T04:23:34.545Z,19.37
2019-03-27T04:26:09.712Z,33.20
2019-03-27T04:28:34.315Z,26.52
2019-03-27T04:31:03.205Z,24.47
2019-03-27T04:33:32.120Z,21.77
2019-03-27T04:36:01.362Z,27.22
2019-03-27T04:38:30.319Z,28.73
2019-03-27T04:40:59.331Z,27.27
2019-03-27T04:43:28.162Z,27.60
2019-03-27T04:45:57.077Z,27.05
2019-03-27T04:48:25.900Z,27.70
2019-03-27T04:50:54.789Z,29.20
2019-03-27T04:53:23.663Z,30.48
2019-03-27T04:55:52.613Z,28.62
2019-03-27T04:58:21.431Z,29.63
2019-03-27T05:00:50.225Z,28.80
2019-03-27T05:03:18.909Z,29.12
2019-03-27T05:05:47.779Z,28.07
2019-03-27T05:08:16.534Z,21.90
2019-03-27T05:10:45.286Z,26.52
2019-03-27T05:13:14.088Z,27.90
2019-03-27T05:15:42.954Z,26.02
2019-03-27T05:18:11.744Z,29.50
2019-03-27T05:20:40.629Z,24.50
2019-03-27T05:23:09.758Z,22.15
2019-03-27T05:25:38.573Z,21.00
2019-03-27T05:28:07.455Z,27.45
2019-03-27T05:30:36.530Z,24.47
2019-03-27T05:33:05.181Z,30.95
2019-03-27T05:35:34.018Z,23.60
2019-03-27T05:38:02.956Z,24.55
2019-03-27T05:40:31.757Z,26.62
2019-03-27T05:43:01.366Z,25.77
2019-03-27T05:45:30.831Z,26.85
2019-03-27T05:48:00.150Z,27.25
2019-03-27T05:50:29.442Z,25.92
2019-03-27T05:52:58.273Z,28.20
2019-03-27T05:55:27.263Z,27.00
2019-03-27T05:57:56.233Z,23.35
2019-03-27T06:00:25.172Z,26.12
2019-03-27T06:02:54.354Z,30.70
2019-03-27T06:05:23.167Z,28.35
2019-03-27T06:07:51.915Z,26.77
2019-03-27T06:10:21.021Z,32.42
2019-03-27T06:12:49.846Z,27.85
2019-03-27T06:15:18.860Z,37.15
2019-03-27T06:17:47.559Z,32.58
2019-03-27T06:20:16.543Z,33.02
2019-03-27T06:22:45.298Z,30.72
2019-03-27T06:25:14.480Z,32.83
2019-03-27T06:27:43.278Z,27.70
2019-03-27T06:30:12.262Z,30.15
2019-03-27T06:32:41.499Z,34.20
2019-03-27T06:35:10.507Z,29.45
2019-03-27T06:37:39.550Z,32.78
2019-03-27T06:40:08.706Z,28.77
2019-03-27T06:42:37.594Z,33.78
2019-03-27T06:45:08.179Z,33.18
2019-03-27T06:47:36.961Z,33.83
2019-03-27T06:50:07.225Z,33.70
2019-03-27T06:52:35.997Z,26.50
2019-03-27T06:55:07.374Z,27.17
2019-03-27T06:57:37.180Z,31.65
2019-03-27T07:00:09.611Z,31.35
2019-03-27T07:02:38.971Z,33.95
2019-03-27T07:05:08.120Z,32.65
2019-03-27T07:07:37.233Z,31.77
2019-03-27T07:10:06.704Z,36.45
2019-03-27T07:12:35.448Z,31.73
2019-03-27T07:15:05.362Z,25.77
2019-03-27T07:17:34.202Z,31.70
2019-03-27T07:20:03.650Z,38.33
2019-03-27T07:22:32.390Z,31.60
2019-03-27T07:25:01.277Z,33.78
2019-03-27T07:27:30.429Z,38.90
2019-03-27T07:29:59.356Z,26.20
2019-03-27T07:32:28.710Z,28.35
2019-03-27T07:34:57.416Z,29.98
2019-03-27T07:37:26.253Z,30.20
2019-03-27T07:39:55.104Z,32.03
2019-03-27T07:42:24.005Z,35.28
2019-03-27T07:44:52.979Z,27.07
2019-03-27T07:47:21.842Z,29.57
2019-03-27T07:49:50.910Z,30.02
2019-03-27T07:52:20.153Z,31.37
2019-03-27T07:54:49.098Z,34.13
2019-03-27T07:57:18.028Z,32.38
2019-03-27T07:59:46.971Z,31.70
2019-03-27T08:02:16.282Z,33.83
2019-03-27T08:04:45.439Z,28.98
2019-03-27T08:07:26.158Z,35.13
2019-03-27T08:09:46.054Z,26.77
2019-03-27T08:12:15.248Z,28.27
2019-03-27T08:14:44.061Z,29.75
2019-03-27T08:17:13.478Z,32.42
2019-03-27T08:19:42.387Z,26.05
2019-03-27T08:22:11.746Z,20.80
2019-03-27T08:24:40.722Z,21.33
2019-03-27T08:27:09.473Z,21.00
2019-03-27T08:29:38.511Z,16.23
2019-03-27T08:32:07.499Z,22.48
2019-03-27T08:34:36.294Z,25.60
2019-03-27T08:37:05.229Z,14.18
2019-03-27T08:39:34.096Z,15.85
2019-03-27T08:42:02.893Z,17.92
2019-03-27T08:44:31.705Z,17.87
2019-03-27T08:47:00.527Z,22.30
2019-03-27T08:49:29.478Z,18.48
2019-03-27T08:51:58.284Z,15.63
2019-03-27T08:54:27.100Z,16.10
2019-03-27T08:56:55.997Z,19.60
2019-03-27T08:59:24.985Z,15.00
2019-03-27T09:01:53.825Z,21.02
2019-03-27T09:04:23.243Z,18.23
2019-03-27T09:06:52.253Z,16.20
2019-03-27T09:09:21.539Z,20.45
2019-03-27T09:11:50.606Z,13.65
2019-03-27T09:14:19.617Z,15.43
2019-03-27T09:16:48.815Z,20.30
2019-03-27T09:19:17.824Z,19.23
2019-03-27T09:21:46.722Z,17.98
2019-03-27T09:24:15.762Z,13.90
2019-03-27T09:26:44.573Z,14.05
2019-03-27T09:29:13.827Z,13.93
2019-03-27T09:31:45.189Z,18.42
2019-03-27T09:34:13.703Z,27.00
2019-03-27T09:36:42.537Z,18.50
2019-03-27T09:39:11.429Z,14.78
2019-03-27T09:41:40.390Z,20.27
2019-03-27T09:44:09.333Z,18.80
2019-03-27T09:46:38.518Z,18.05
2019-03-27T09:49:07.569Z,20.80
2019-03-27T09:51:36.614Z,21.10
2019-03-27T09:54:05.825Z,20.05
2019-03-27T09:56:34.788Z,16.52
2019-03-27T09:59:06.038Z,18.98
2019-03-27T10:01:34.696Z,18.48
2019-03-27T10:04:03.606Z,12.85
2019-03-27T10:06:32.911Z,12.53
2019-03-27T10:09:01.891Z,18.17
2019-03-27T10:11:30.753Z,17.75
2019-03-27T10:13:59.862Z,13.05
2019-03-27T10:16:28.612Z,14.40
2019-03-27T10:18:57.763Z,14.25
2019-03-27T10:21:26.583Z,21.48
2019-03-27T10:23:55.525Z,15.32
2019-03-27T10:26:24.385Z,16.15
2019-03-27T10:28:53.131Z,11.90
2019-03-27T10:31:21.939Z,12.68
2019-03-27T10:33:51.028Z,15.32
2019-03-27T10:36:20.185Z,18.05
2019-03-27T10:38:49.929Z,21.23
2019-03-27T10:41:18.815Z,18.57
2019-03-27T10:43:47.552Z,17.27
2019-03-27T10:46:16.296Z,16.20
2019-03-27T10:48:52.345Z,15.93
2019-03-27T10:51:15.980Z,18.75
2019-03-27T10:53:44.761Z,17.07
2019-03-27T10:56:14.001Z,20.43
2019-03-27T10:58:42.867Z,16.02
2019-03-27T11:01:12.198Z,16.70
2019-03-27T11:03:41.328Z,19.77
2019-03-27T11:06:10.330Z,15.90
2019-03-27T11:08:39.206Z,16.65
2019-03-27T11:11:08.206Z,24.72
2019-03-27T11:13:37.034Z,15.23
2019-03-27T11:16:05.851Z,14.28
2019-03-27T11:18:34.695Z,14.85
2019-03-27T11:21:03.614Z,15.10
2019-03-27T11:23:32.367Z,22.52
2019-03-27T11:26:01.145Z,13.35
2019-03-27T11:28:30.626Z,12.68
2019-03-27T11:30:59.560Z,13.10
2019-03-27T11:33:28.992Z,11.30
2019-03-27T11:35:58.004Z,12.25
2019-03-27T11:38:27.122Z,12.78
2019-03-27T11:40:56.217Z,13.48
2019-03-27T11:43:25.327Z,10.45
2019-03-27T11:45:54.041Z,9.13
2019-03-27T11:48:22.937Z,10.32
2019-03-27T11:50:52.066Z,11.80
2019-03-27T11:53:20.953Z,8.13
2019-03-27T11:55:49.920Z,10.95
2019-03-27T11:58:19.838Z,7.78
2019-03-27T12:00:54.781Z,9.65
2019-03-27T12:03:19.299Z,5.60
2019-03-27T12:05:48.709Z,8.93
2019-03-27T12:08:17.837Z,8.95
2019-03-27T12:10:46.771Z,8.38
2019-03-27T12:13:17.324Z,7.78
2019-03-27T12:15:46.150Z,6.80
2019-03-27T12:18:16.435Z,7.85
2019-03-27T12:20:58.171Z,8.10
2019-03-27T12:23:16.263Z,9.83
2019-03-27T12:25:45.149Z,5.85
2019-03-27T12:28:14.072Z,7.95
2019-03-27T12:30:43.047Z,5.83
2019-03-27T12:33:11.884Z,9.40
2019-03-27T12:35:41.374Z,9.55
2019-03-27T12:38:10.193Z,6.28
2019-03-27T12:40:39.082Z,8.80
2019-03-27T12:43:08.088Z,9.25
2019-03-27T12:45:36.825Z,4.92
2019-03-27T12:48:06.468Z,5.90
2019-03-27T12:50:35.943Z,5.20
2019-03-27T12:53:05.157Z,7.15
2019-03-27T12:55:34.264Z,7.85
2019-03-27T12:58:03.219Z,7.62
2019-03-27T13:00:32.298Z,5.30
2019-03-27T13:03:01.237Z,9.35
2019-03-27T13:05:29.994Z,4.28
2019-03-27T13:07:59.007Z,4.72
2019-03-27T13:10:27.878Z,4.20
2019-03-27T13:12:56.818Z,4.30
2019-03-27T13:15:25.680Z,6.65
2019-03-27T13:17:54.680Z,6.20
2019-03-27T13:20:23.712Z,6.22
2019-03-27T13:22:52.660Z,4.75
2019-03-27T13:25:21.399Z,4.55
2019-03-27T13:27:50.296Z,4.95
2019-03-27T13:30:19.510Z,5.33
2019-03-27T13:32:49.018Z,9.45
2019-03-27T13:35:17.755Z,5.87
2019-03-27T13:37:46.671Z,5.20
2019-03-27T13:40:16.216Z,5.70
2019-03-27T13:42:45.174Z,4.25
2019-03-27T13:45:14.823Z,5.80
2019-03-27T13:47:44.091Z,7.37
2019-03-27T13:50:14.829Z,11.40
2019-03-27T13:52:44.017Z,4.87
2019-03-27T13:55:13.131Z,7.17
2019-03-27T13:57:41.920Z,3.98
2019-03-27T14:00:12.151Z,3.08
2019-03-27T14:02:40.907Z,5.08
2019-03-27T14:05:10.748Z,5.45
2019-03-27T14:07:39.738Z,9.50
2019-03-27T14:10:08.971Z,8.03
2019-03-27T14:12:37.894Z,6.03
2019-03-27T14:15:08.127Z,4.80
2019-03-27T14:17:37.012Z,8.08
2019-03-27T14:20:07.952Z,4.70
2019-03-27T14:22:37.007Z,3.90
2019-03-27T14:25:08.050Z,4.67
2019-03-27T14:27:37.019Z,6.95
2019-03-27T14:30:10.240Z,4.90
2019-03-27T14:32:39.276Z,2.72
2019-03-27T14:35:10.347Z,2.85
2019-03-27T14:37:39.324Z,6.50
2019-03-27T14:40:09.690Z,3.45
2019-03-27T14:42:38.762Z,3.15
2019-03-27T14:45:09.768Z,4.10
2019-03-27T14:47:39.096Z,4.92
2019-03-27T14:50:09.420Z,4.40
2019-03-27T14:52:38.921Z,2.70
2019-03-27T14:55:08.943Z,2.70
2019-03-27T14:57:38.533Z,3.80
2019-03-27T15:00:09.727Z,6.20
2019-03-27T15:02:38.764Z,3.75
2019-03-27T15:05:08.290Z,3.55
2019-03-27T15:07:37.272Z,3.27
2019-03-27T15:10:07.936Z,4.00
2019-03-27T15:12:36.797Z,5.03
2019-03-27T15:15:06.894Z,5.40
2019-03-27T15:17:35.772Z,2.30
2019-03-27T15:20:05.803Z,6.78
2019-03-27T15:22:37.468Z,2.12
2019-03-27T15:25:07.526Z,2.08
2019-03-27T15:27:36.744Z,3.17
2019-03-27T15:30:08.014Z,3.30
2019-03-27T15:32:36.837Z,4.22
2019-03-27T15:35:08.076Z,2.75
2019-03-27T15:37:37.251Z,2.95
2019-03-27T15:40:10.008Z,3.67
2019-03-27T15:42:39.777Z,3.37
2019-03-27T15:45:09.597Z,5.47
2019-03-27T15:47:51.594Z,4.22
2019-03-27T15:50:20.681Z,4.47
2019-03-27T15:52:49.544Z,3.67
2019-03-27T15:55:18.508Z,4.17
2019-03-27T15:57:47.236Z,6.75
2019-03-27T16:00:16.339Z,4.92
2019-03-27T16:02:45.150Z,4.47
2019-03-27T16:05:14.161Z,6.30
2019-03-27T16:07:43.011Z,4.60
2019-03-27T16:10:12.064Z,2.98
2019-03-27T16:12:41.476Z,8.43
2019-03-27T16:15:10.691Z,3.98
2019-03-27T16:17:39.514Z,2.83
2019-03-27T16:20:08.879Z,5.00
2019-03-27T16:22:50.044Z,2.58
2019-03-27T16:25:08.544Z,4.67
2019-03-27T16:27:37.478Z,4.35
2019-03-27T16:30:06.830Z,3.83
2019-03-27T16:32:35.610Z,6.65
2019-03-27T16:35:04.827Z,5.22
2019-03-27T16:37:33.771Z,8.80
2019-03-27T16:40:03.262Z,3.50
2019-03-27T16:42:32.069Z,4.40
2019-03-27T16:45:00.992Z,4.05
2019-03-27T16:47:29.906Z,5.45
2019-03-27T16:49:58.729Z,5.70
2019-03-27T16:52:28.155Z,4.83
2019-03-27T16:54:56.998Z,4.25
2019-03-27T16:57:25.974Z,4.17
2019-03-27T16:59:54.766Z,5.12
2019-03-27T17:02:23.621Z,7.08
2019-03-27T17:04:53.066Z,5.92
2019-03-27T17:07:21.834Z,6.40
2019-03-27T17:09:50.783Z,6.12
2019-03-27T17:12:19.794Z,5.25
2019-03-27T17:14:49.177Z,5.15
2019-03-27T17:17:18.120Z,6.30
2019-03-27T17:19:47.565Z,4.17
2019-03-27T17:22:19.699Z,5.60
2019-03-27T17:24:47.144Z,7.50
2019-03-27T17:27:16.080Z,5.08
2019-03-27T17:29:48.270Z,4.87
2019-03-27T17:32:17.135Z,9.63
2019-03-27T17:34:46.097Z,5.87
2019-03-27T17:37:15.120Z,6.87
2019-03-27T17:39:43.835Z,9.50
2019-03-27T17:42:13.177Z,9.50
2019-03-27T17:44:42.125Z,12.28
2019-03-27T17:47:11.295Z,8.63
2019-03-27T17:49:40.063Z,5.97
2019-03-27T17:52:08.833Z,5.62
2019-03-27T17:54:37.866Z,6.22
2019-03-27T17:57:06.972Z,10.20
2019-03-27T17:59:35.883Z,7.37
2019-03-27T18:02:04.725Z,7.17
2019-03-27T18:04:33.595Z,10.00
2019-03-27T18:07:02.939Z,7.10
2019-03-27T18:09:32.366Z,8.98
2019-03-27T18:12:01.365Z,6.62
2019-03-27T18:14:30.329Z,3.80
2019-03-27T18:16:59.407Z,5.20
2019-03-27T18:19:28.414Z,5.95
2019-03-27T18:22:07.139Z,4.05
2019-03-27T18:24:27.947Z,3.67
2019-03-27T18:26:57.315Z,3.52
2019-03-27T18:29:26.243Z,8.48
2019-03-27T18:31:55.147Z,7.12
2019-03-27T18:34:23.871Z,2.70
2019-03-27T18:36:52.949Z,7.20
2019-03-27T18:39:21.706Z,3.08
2019-03-27T18:41:50.627Z,2.67
2019-03-27T18:44:19.823Z,5.53
2019-03-27T18:46:48.631Z,6.47
2019-03-27T18:49:17.668Z,4.83
2019-03-27T18:51:46.609Z,4.50
2019-03-27T18:54:15.430Z,5.45
2019-03-27T18:56:44.353Z,5.50
2019-03-27T18:59:13.479Z,3.75
2019-03-27T19:01:42.284Z,5.85
2019-03-27T19:04:11.582Z,9.95
2019-03-27T19:06:40.716Z,6.55
2019-03-27T19:09:09.737Z,4.95
2019-03-27T19:11:38.586Z,6.67
2019-03-27T19:14:07.763Z,11.68
2019-03-27T19:16:36.631Z,9.68
2019-03-27T19:19:05.819Z,5.00
2019-03-27T19:21:34.605Z,4.62
2019-03-27T19:24:14.762Z,8.43
2019-03-27T19:26:34.958Z,6.55
2019-03-27T19:29:04.207Z,4.25
2019-03-27T19:31:33.625Z,6.95
2019-03-27T19:34:02.641Z,7.75
2019-03-27T19:36:31.578Z,7.33
2019-03-27T19:39:00.420Z,12.93
2019-03-27T19:41:29.441Z,5.40
2019-03-27T19:43:58.973Z,4.62
2019-03-27T19:46:27.970Z,8.43
2019-03-27T19:48:56.946Z,7.75
2019-03-27T19:51:25.848Z,4.53
2019-03-27T19:53:54.680Z,10.45
2019-03-27T19:56:23.540Z,5.22
2019-03-27T19:58:52.461Z,5.08
2019-03-27T20:01:21.358Z,10.95
2019-03-27T20:03:50.527Z,6.50
2019-03-27T20:06:19.477Z,4.65
2019-03-27T20:08:48.692Z,6.03
2019-03-27T20:11:17.546Z,6.20
2019-03-27T20:13:46.663Z,5.60
2019-03-27T20:16:15.749Z,6.25
2019-03-27T20:18:44.763Z,7.20
2019-03-27T20:21:13.841Z,12.33
2019-03-27T20:23:43.162Z,5.10
2019-03-27T20:26:13.028Z,10.20
2019-03-27T20:28:42.456Z,11.95
2019-03-27T20:31:11.791Z,8.58
2019-03-27T20:33:40.687Z,5.22
2019-03-27T20:36:09.495Z,6.25
2019-03-27T20:38:38.317Z,6.10
2019-03-27T20:41:07.147Z,5.28
2019-03-27T20:43:36.067Z,8.98
2019-03-27T20:46:04.987Z,5.22
2019-03-27T20:48:33.803Z,7.03
2019-03-27T20:51:02.912Z,5.10
2019-03-27T20:53:31.881Z,6.22
2019-03-27T20:56:00.751Z,9.10
2019-03-27T20:58:30.034Z,6.75
2019-03-27T21:00:58.968Z,7.08
2019-03-27T21:03:27.839Z,6.33
2019-03-27T21:05:56.838Z,7.78
2019-03-27T21:08:25.722Z,7.95
2019-03-27T21:10:54.581Z,8.48
2019-03-27T21:13:23.709Z,8.20
2019-03-27T21:15:52.545Z,6.47
2019-03-27T21:18:21.427Z,8.08
2019-03-27T21:20:50.279Z,9.68
2019-03-27T21:23:19.181Z,6.15
2019-03-27T21:25:48.113Z,12.33
2019-03-27T21:28:16.968Z,11.90
2019-03-27T21:30:45.863Z,5.67
2019-03-27T21:33:14.954Z,7.30
2019-03-27T21:35:43.620Z,7.90
2019-03-27T21:38:12.501Z,7.65
2019-03-27T21:40:41.343Z,7.90
2019-03-27T21:43:10.317Z,15.15
2019-03-27T21:45:39.160Z,5.95
2019-03-27T21:48:08.461Z,6.20
2019-03-27T21:50:37.696Z,8.65
2019-03-27T21:53:06.540Z,5.40
2019-03-27T21:55:42.605Z,9.98
2019-03-27T21:58:06.410Z,12.60
2019-03-27T22:00:39.536Z,14.07
2019-03-27T22:03:08.975Z,9.03
2019-03-27T22:05:37.865Z,13.70
2019-03-27T22:08:06.897Z,13.38
2019-03-27T22:10:35.842Z,10.85
2019-03-27T22:13:04.936Z,12.53
2019-03-27T22:15:34.000Z,14.15
2019-03-27T22:18:02.867Z,15.80
2019-03-27T22:20:32.171Z,11.57
2019-03-27T22:23:01.060Z,11.35
2019-03-27T22:25:35.837Z,11.53
2019-03-27T22:28:00.806Z,10.10
2019-03-27T22:30:29.751Z,11.15
2019-03-27T22:32:58.540Z,10.93
2019-03-27T22:35:27.492Z,7.80
2019-03-27T22:37:56.261Z,9.48
2019-03-27T22:40:25.217Z,12.65
2019-03-27T22:42:56.819Z,10.88
2019-03-27T22:45:24.958Z,11.53
2019-03-27T22:47:53.756Z,14.05
2019-03-27T22:50:22.783Z,10.75
2019-03-27T22:52:51.669Z,11.73
2019-03-27T22:55:21.057Z,9.13
2019-03-27T22:57:49.986Z,11.93
2019-03-27T23:00:21.255Z,11.33
2019-03-27T23:02:50.058Z,10.90
2019-03-27T23:05:19.186Z,9.93
2019-03-27T23:07:48.036Z,8.78
2019-03-27T23:10:16.860Z,8.90
2019-03-27T23:12:45.682Z,13.08
2019-03-27T23:15:15.664Z,11.00
2019-03-27T23:17:44.942Z,10.08
2019-03-27T23:20:13.935Z,12.33
2019-03-27T23:22:42.693Z,9.58
2019-03-27T23:25:11.756Z,9.98
2019-03-27T23:27:40.509Z,8.40
2019-03-27T23:30:10.725Z,10.82
2019-03-27T23:32:39.486Z,8.98
2019-03-27T23:35:08.551Z,9.63
2019-03-27T23:37:37.388Z,12.88
2019-03-27T23:40:08.614Z,10.75
2019-03-27T23:42:37.551Z,8.53
2019-03-27T23:45:07.786Z,12.63
2019-03-27T23:47:36.570Z,9.73
2019-03-27T23:50:06.276Z,11.93
2019-03-27T23:52:35.699Z,16.07
2019-03-27T23:55:04.827Z,18.98
2019-03-27T23:57:33.682Z,24.02
